Time;durP1;ratioP1;P1;durP2;ratioP2;P2;SDS_P1;SDS_P2;PMS_P1;PMS_P2;Temp;Humidity;BMP_temperature;BMP_pressure;BME280_temperature;BME280_humidity;BME280_pressure;Samples;Min_cycle;Max_cycle;Signal;HPM_P1;HPM_P2
2021/11/07 00:01:02;;;;;;;23.65;16.25;;;;;;;3.61;89.41;101567.16;1679236;85;21279;-58
2021/11/07 00:10:54;;;;;;;27.67;19.30;;;;;;;3.53;89.09;101565.45;1667859;85;21271;-57
2021/11/07 00:13:58;;;;;;;26.30;18.98;;;;;;;3.51;89.16;101561.09;1680327;84;21348;-58
2021/11/07 00:17:04;;;;;;;22.80;18.40;;;;;;;3.49;89.28;101561.20;1680040;84;21847;-58
2021/11/07 00:20:18;;;;;;;24.00;18.65;;;;;;;3.50;89.41;101561.59;1672582;83;21915;-58
2021/11/07 00:29:37;;;;;;;30.57;22.45;;;;;;;3.48;89.18;101566.23;1670485;85;21386;-58
2021/11/07 00:39:36;;;;;;;26.95;20.02;;;;;;;3.42;89.31;101559.88;1671471;85;21343;-59
2021/11/07 00:46:00;;;;;;;24.60;18.50;;;;;;;3.38;89.32;101562.39;1670544;85;21378;-58
2021/11/07 00:49:01;;;;;;;23.65;17.27;;;;;;;3.39;89.37;101559.21;1670864;84;21378;-58
2021/11/07 00:55:41;;;;;;;22.98;15.90;;;;;;;3.33;89.15;101556.41;1670554;85;21362;-58
2021/11/07 00:58:46;;;;;;;20.80;15.25;;;;;;;3.32;89.09;101554.69;1670742;84;21430;-58
2021/11/07 01:01:52;;;;;;;23.32;17.48;;;;;;;3.27;88.97;101556.82;1670464;84;21426;-58
2021/11/07 01:04:57;;;;;;;27.55;17.25;;;;;;;3.25;88.88;101556.05;1673848;85;21239;-59
2021/11/07 01:08:04;;;;;;;27.98;19.40;;;;;;;3.22;88.89;101552.19;1669987;84;21268;-59
2021/11/07 01:11:10;;;;;;;26.60;19.55;;;;;;;3.21;88.86;101551.82;1670349;85;21208;-59
2021/11/07 01:14:16;;;;;;;28.07;22.40;;;;;;;3.21;88.82;101555.00;1671125;85;21201;-59
2021/11/07 01:17:21;;;;;;;28.15;21.50;;;;;;;3.20;88.86;101558.21;1669959;84;21410;-59
2021/11/07 01:20:29;;;;;;;31.97;20.25;;;;;;;3.21;88.93;101558.59;1671282;83;21374;-59
2021/11/07 01:23:41;;;;;;;27.17;19.85;;;;;;;3.21;88.97;101557.70;1670543;84;21870;-59
2021/11/07 01:26:47;;;;;;;24.63;16.87;;;;;;;3.25;89.11;101547.92;1670502;85;21296;-58
2021/11/07 01:29:54;;;;;;;29.60;19.48;;;;;;;3.26;89.20;101552.87;1670657;85;21417;-58
2021/11/07 01:33:05;;;;;;;28.90;19.92;;;;;;;3.31;89.36;101557.02;1670681;84;21240;-58
2021/11/07 01:39:44;;;;;;;27.90;20.23;;;;;;;3.35;89.44;101555.83;1671272;85;21884;-58
2021/11/07 01:42:52;;;;;;;32.65;20.32;;;;;;;3.37;89.45;101557.08;1670391;84;21379;-58
2021/11/07 01:45:56;;;;;;;30.60;19.85;;;;;;;3.37;89.45;101548.49;1670956;85;21426;-58
2021/11/07 01:49:02;;;;;;;28.12;19.02;;;;;;;3.39;89.49;101549.27;1670883;84;21426;-59
2021/11/07 01:52:07;;;;;;;26.07;19.10;;;;;;;3.40;89.54;101540.16;1670291;84;21387;-58
2021/11/07 01:55:17;;;;;;;28.20;19.57;;;;;;;3.43;89.52;101539.08;1670109;85;21267;-58
2021/11/07 01:58:18;;;;;;;26.80;22.27;;;;;;;3.44;89.46;101536.78;1670058;84;21378;-58
2021/11/07 02:01:33;;;;;;;30.02;24.77;;;;;;;3.43;89.38;101544.02;1670416;85;21248;-58
2021/11/07 02:04:38;;;;;;;30.37;25.68;;;;;;;3.45;89.44;101541.20;1671051;85;21374;-60
2021/11/07 02:07:43;;;;;;;31.70;22.73;;;;;;;3.45;89.44;101538.03;1654806;85;21240;-59
2021/11/07 02:10:50;;;;;;;28.30;22.20;;;;;;;3.46;89.42;101537.05;1670690;85;21225;-57
2021/11/07 02:13:56;;;;;;;27.77;19.35;;;;;;;3.45;89.36;101533.97;1670516;84;21741;-59
2021/11/07 02:17:01;;;;;;;22.58;16.97;;;;;;;3.44;89.34;101529.50;1670518;84;21201;-59
2021/11/07 02:20:09;;;;;;;24.32;18.00;;;;;;;3.42;89.39;101536.88;1670681;85;21335;-58
2021/11/07 02:23:18;;;;;;;24.52;17.25;;;;;;;3.43;89.45;101538.60;1671833;85;21300;-58
2021/11/07 02:26:23;;;;;;;25.60;17.10;;;;;;;3.42;89.44;101538.23;1675070;85;21307;-59
2021/11/07 02:29:29;;;;;;;26.25;17.00;;;;;;;3.42;89.45;101534.17;1674154;85;21836;-59
2021/11/07 02:32:35;;;;;;;27.13;17.67;;;;;;;3.42;89.37;101538.23;1668816;84;21379;-58
2021/11/07 02:35:39;;;;;;;26.55;16.30;;;;;;;3.41;89.34;101536.47;1669019;86;21359;-58
2021/11/07 02:38:46;;;;;;;25.27;17.12;;;;;;;3.39;89.32;101533.03;1669078;84;21379;-58
2021/11/07 02:41:52;;;;;;;24.37;16.75;;;;;;;3.39;89.32;101531.67;1669079;84;21379;-58
2021/11/07 02:44:58;;;;;;;23.80;16.67;;;;;;;3.38;89.32;101524.50;1669107;86;21213;-58
2021/11/07 02:48:03;;;;;;;30.15;17.30;;;;;;;3.37;89.29;101517.37;1669009;84;21371;-59
2021/11/07 02:51:09;;;;;;;27.90;16.90;;;;;;;3.34;89.27;101517.58;1668961;86;21371;-58
2021/11/07 02:54:15;;;;;;;26.05;16.75;;;;;;;3.31;89.22;101516.44;1669170;86;21418;-58
2021/11/07 02:57:23;;;;;;;29.92;16.30;;;;;;;3.29;89.22;101522.42;1669159;84;21414;-59
2021/11/07 03:00:30;;;;;;;28.10;17.07;;;;;;;3.27;89.20;101516.23;1669083;86;21359;-59
2021/11/07 03:03:36;;;;;;;24.60;14.53;;;;;;;3.25;89.14;101518.67;1668936;84;21358;-58
2021/11/07 03:06:44;;;;;;;22.45;15.05;;;;;;;3.23;89.12;101518.78;1669083;85;21342;-59
2021/11/07 03:09:50;;;;;;;24.57;15.30;;;;;;;3.21;89.09;101526.12;1669165;86;21362;-59
2021/11/07 03:13:11;;;;;;;23.90;15.25;;;;;;;3.18;89.03;101510.09;1669057;84;21382;-58
2021/11/07 03:16:19;;;;;;;26.27;16.25;;;;;;;3.15;89.03;101513.00;1669269;86;21529;-58
2021/11/07 03:19:27;;;;;;;26.77;17.30;;;;;;;3.12;89.08;101510.50;1668910;86;21221;-57
2021/11/07 03:22:35;;;;;;;26.62;17.05;;;;;;;3.09;89.07;101511.55;1674317;81;21197;-58
2021/11/07 03:25:56;;;;;;;24.85;15.95;;;;;;;3.08;89.10;101510.81;1673302;85;21207;-58
2021/11/07 03:29:01;;;;;;;25.02;16.73;;;;;;;3.06;89.15;101517.17;1661033;85;21204;-58
2021/11/07 03:32:08;;;;;;;25.45;16.30;;;;;;;3.04;89.17;101515.55;1675116;85;21232;-58
2021/11/07 03:35:17;;;;;;;26.42;16.37;;;;;;;3.03;89.20;101513.79;1675036;85;21234;-59
2021/11/07 03:38:21;;;;;;;22.40;16.30;;;;;;;3.02;89.25;101520.18;1663191;85;21260;-58
2021/11/07 03:41:26;;;;;;;24.98;15.20;;;;;;;3.00;89.22;101513.52;1674868;85;21304;-59
2021/11/07 03:44:32;;;;;;;24.65;16.25;;;;;;;2.97;89.13;101515.08;1675140;85;21324;-59
2021/11/07 03:47:37;;;;;;;21.27;14.25;;;;;;;2.95;89.16;101517.00;1675410;85;21235;-58
2021/11/07 03:50:45;;;;;;;25.43;14.15;;;;;;;2.93;89.16;101514.03;1675376;85;21256;-58
2021/11/07 03:53:52;;;;;;;21.30;14.68;;;;;;;2.91;89.17;101510.55;1675385;85;21205;-58
2021/11/07 03:56:58;;;;;;;22.65;14.93;;;;;;;2.89;89.13;101509.30;1675332;85;21465;-59
2021/11/07 04:00:04;;;;;;;23.55;15.80;;;;;;;2.87;89.09;101507.67;1675127;85;21216;-59
2021/11/07 04:03:11;;;;;;;25.92;14.87;;;;;;;2.83;89.06;101518.28;1675267;85;21259;-58
2021/11/07 04:06:17;;;;;;;21.73;14.98;;;;;;;2.79;89.08;101517.61;1675307;85;21197;-59
2021/11/07 04:09:25;;;;;;;25.60;16.27;;;;;;;2.77;89.11;101510.11;1675279;85;21319;-58
2021/11/07 04:12:31;;;;;;;25.82;16.70;;;;;;;2.74;89.10;101518.89;1675306;85;21232;-59
2021/11/07 04:15:38;;;;;;;24.82;16.23;;;;;;;2.70;89.15;101522.73;1675404;85;21343;-60
2021/11/07 04:18:46;;;;;;;29.05;16.07;;;;;;;2.67;89.19;101518.41;1675172;85;21256;-59
2021/11/07 04:21:54;;;;;;;22.50;15.35;;;;;;;2.64;89.21;101523.14;1675266;85;21206;-58
2021/11/07 04:25:00;;;;;;;24.35;15.30;;;;;;;2.61;89.32;101519.28;1678684;82;21243;-60
2021/11/07 04:28:06;;;;;;;24.30;15.98;;;;;;;2.59;89.44;101521.20;1679831;85;21255;-60
2021/11/07 04:31:12;;;;;;;23.18;14.95;;;;;;;2.58;89.62;101527.59;1679483;85;21208;-59
2021/11/07 04:34:20;;;;;;;25.50;16.48;;;;;;;2.59;89.76;101532.02;1682331;85;21228;-59
2021/11/07 04:37:28;;;;;;;25.35;16.45;;;;;;;2.58;89.93;101532.52;1679531;85;21721;-59
2021/11/07 04:40:33;;;;;;;27.20;16.48;;;;;;;2.59;90.05;101530.66;1679331;85;21279;-58
2021/11/07 04:43:39;;;;;;;22.52;15.00;;;;;;;2.58;90.14;101532.52;1679222;85;21243;-59
2021/11/07 04:46:47;;;;;;;25.02;17.48;;;;;;;2.58;90.12;101532.99;1678970;85;21252;-59
2021/11/07 04:49:55;;;;;;;25.45;15.68;;;;;;;2.58;90.22;101533.88;1679111;85;21196;-59
2021/11/07 04:53:04;;;;;;;23.90;16.27;;;;;;;2.60;90.34;101545.94;1679664;85;21286;-59
2021/11/07 04:56:10;;;;;;;28.12;16.57;;;;;;;2.63;90.38;101547.09;1679649;85;21227;-59
2021/11/07 04:59:16;;;;;;;25.70;16.95;;;;;;;2.65;90.38;101542.44;1678764;85;21299;-60
2021/11/07 05:02:21;;;;;;;27.25;16.65;;;;;;;2.67;90.36;101549.50;1679444;85;21271;-58
2021/11/07 05:05:28;;;;;;;25.90;18.12;;;;;;;2.68;90.25;101549.88;1679784;85;21211;-59
2021/11/07 05:08:33;;;;;;;29.10;17.45;;;;;;;2.70;90.13;101553.83;1679800;85;21740;-59
2021/11/07 05:11:38;;;;;;;24.65;16.55;;;;;;;2.70;90.03;101552.47;1679462;85;21267;-60
2021/11/07 05:14:44;;;;;;;21.82;15.53;;;;;;;2.71;89.91;101552.88;1678994;85;21200;-60
2021/11/07 05:17:51;;;;;;;27.42;16.17;;;;;;;2.72;89.87;101541.97;1679784;85;21381;-60
2021/11/07 05:20:58;;;;;;;23.83;15.93;;;;;;;2.75;89.91;101539.54;1679680;85;21318;-59
2021/11/07 05:24:05;;;;;;;26.37;16.40;;;;;;;2.80;89.97;101540.12;1679601;85;21227;-60
2021/11/07 05:27:12;;;;;;;25.40;16.35;;;;;;;2.85;89.93;101550.16;1646150;87;21243;-60
2021/11/07 05:30:20;;;;;;;21.77;15.08;;;;;;;2.88;89.85;101554.89;1646177;87;21257;-60
2021/11/07 05:33:26;;;;;;;22.95;15.53;;;;;;;2.91;89.75;101543.00;1646402;86;21295;-60
2021/11/07 05:36:33;;;;;;;25.92;15.63;;;;;;;2.94;89.65;101545.50;1646172;87;21284;-59
2021/11/07 05:39:38;;;;;;;28.10;16.65;;;;;;;2.97;89.58;101547.53;1645991;87;21240;-59
2021/11/07 05:42:43;;;;;;;30.50;20.65;;;;;;;3.01;89.52;101545.50;1645932;87;21239;-59
2021/11/07 05:45:49;;;;;;;32.67;23.30;;;;;;;3.05;89.44;101538.44;1645948;87;21216;-59
2021/11/07 05:48:55;;;;;;;39.67;25.82;;;;;;;3.11;89.43;101537.16;1613675;87;21284;-59
2021/11/07 05:52:00;;;;;;;36.00;27.22;;;;;;;3.16;89.48;101544.48;1613821;87;21285;-59
2021/11/07 05:55:06;;;;;;;37.42;25.32;;;;;;;3.24;89.50;101539.44;1613965;89;21264;-60
2021/11/07 05:58:12;;;;;;;32.17;21.87;;;;;;;3.33;89.59;101546.94;1613550;87;21276;-60
2021/11/07 06:01:21;;;;;;;28.80;18.70;;;;;;;3.40;89.65;101544.23;1624398;87;21300;-60
2021/11/07 06:04:27;;;;;;;30.60;17.10;;;;;;;3.49;89.72;101540.89;1646369;87;21237;-59
2021/11/07 06:07:33;;;;;;;26.33;17.60;;;;;;;3.56;89.71;101550.36;1645388;86;21226;-61
2021/11/07 06:10:38;;;;;;;28.17;18.42;;;;;;;3.62;89.70;101552.64;1645428;87;21234;-61
2021/11/07 06:13:43;;;;;;;29.42;18.80;;;;;;;3.68;89.72;101546.80;1645524;86;21766;-61
2021/11/07 06:16:49;;;;;;;32.85;20.65;;;;;;;3.73;89.79;101547.37;1645242;86;21222;-60
2021/11/07 06:19:56;;;;;;;34.08;20.17;;;;;;;3.81;89.88;101550.91;1644415;87;21241;-59
2021/11/07 06:23:03;;;;;;;35.10;19.57;;;;;;;3.90;89.95;101551.14;1644971;86;21869;-60
2021/11/07 06:26:08;;;;;;;30.20;18.80;;;;;;;3.98;90.04;101559.61;1654463;82;21785;-60
2021/11/07 06:29:12;;;;;;;31.85;19.12;;;;;;;4.08;90.12;101551.24;1674413;85;21267;-60
2021/11/07 06:32:18;;;;;;;39.95;24.98;;;;;;;4.19;90.18;101559.97;1674451;84;21227;-61
2021/11/07 06:35:24;;;;;;;42.15;23.22;;;;;;;4.26;90.21;101551.33;1674331;85;21611;-61
2021/11/07 06:38:32;;;;;;;32.03;19.25;;;;;;;4.37;90.27;101558.22;1674478;84;21249;-60
2021/11/07 06:41:37;;;;;;;28.75;18.62;;;;;;;4.46;90.30;101560.27;1674795;85;21239;-61
2021/11/07 06:44:44;;;;;;;32.85;19.37;;;;;;;4.56;90.35;101559.13;1674700;85;21308;-60
2021/11/07 06:47:49;;;;;;;30.97;18.67;;;;;;;4.68;90.38;101565.53;1674593;84;21303;-61
2021/11/07 06:50:56;;;;;;;28.23;18.90;;;;;;;4.76;90.43;101568.56;1674939;85;21267;-61
2021/11/07 06:54:03;;;;;;;26.20;18.10;;;;;;;4.84;90.49;101562.95;1677880;84;21236;-61
2021/11/07 06:57:09;;;;;;;28.30;18.23;;;;;;;4.94;90.56;101568.10;1674886;84;21255;-60
2021/11/07 07:00:18;;;;;;;28.52;18.60;;;;;;;5.04;90.67;101565.59;1679532;85;21212;-60
2021/11/07 07:03:26;;;;;;;33.38;19.73;;;;;;;5.14;90.76;101565.30;1647238;85;21833;-61
2021/11/07 07:06:33;;;;;;;27.87;18.80;;;;;;;5.25;90.84;101566.73;1647596;87;21289;-60
2021/11/07 07:09:47;;;;;;;29.20;17.98;;;;;;;5.34;90.76;101553.83;1647151;87;21226;-61
2021/11/07 07:13:05;;;;;;;30.97;19.12;;;;;;;5.43;90.64;101549.06;1647289;85;21214;-61
2021/11/07 07:29:11;;;;;;;26.95;16.48;;;;;;;5.81;89.82;101556.06;1653537;84;21248;-60
2021/11/07 07:35:36;;;;;;;25.57;17.40;;;;;;;6.01;89.80;101545.03;1677813;85;21741;-60
2021/11/07 07:38:42;;;;;;;28.05;17.45;;;;;;;6.10;89.74;101545.19;1678332;85;21560;-60
2021/11/07 07:41:49;;;;;;;30.77;18.65;;;;;;;6.19;89.74;101547.69;1678313;85;21280;-61
2021/11/07 07:44:56;;;;;;;29.00;18.00;;;;;;;6.28;89.71;101541.52;1677976;85;21227;-59
2021/11/07 07:48:03;;;;;;;27.67;17.57;;;;;;;6.39;89.60;101542.06;1671190;85;21239;-60
2021/11/07 07:51:09;;;;;;;27.27;18.20;;;;;;;6.48;89.27;101539.48;1662878;86;21370;-60
2021/11/07 07:54:17;;;;;;;28.45;16.75;;;;;;;6.58;89.10;101541.83;1663046;86;21295;-60
2021/11/07 07:57:24;;;;;;;25.95;17.57;;;;;;;6.69;88.93;101543.19;1662743;85;21930;-60
2021/11/07 08:00:31;;;;;;;24.47;16.62;;;;;;;6.78;88.82;101543.84;1662260;86;21393;-59
2021/11/07 08:03:37;;;;;;;24.20;15.28;;;;;;;6.87;88.68;101539.00;1662673;85;21899;-60
2021/11/07 08:06:43;;;;;;;24.98;17.20;;;;;;;6.97;88.46;101540.00;1662138;86;21478;-60
2021/11/07 08:09:49;;;;;;;26.27;16.40;;;;;;;7.06;88.00;101543.33;1663338;86;21946;-60
2021/11/07 08:12:57;;;;;;;23.90;16.02;;;;;;;7.14;87.58;101535.88;1662628;85;21410;-59
2021/11/07 08:16:03;;;;;;;22.30;14.78;;;;;;;7.24;87.48;101545.91;1662358;86;21797;-60
2021/11/07 08:19:09;;;;;;;24.45;15.68;;;;;;;7.36;87.02;101548.97;1662058;85;21248;-61
2021/11/07 08:22:17;;;;;;;29.00;16.17;;;;;;;7.44;86.60;101545.12;1662345;85;21630;-61
2021/11/07 08:25:24;;;;;;;23.18;14.35;;;;;;;7.54;86.28;101545.22;1662965;86;21276;-60
2021/11/07 08:28:31;;;;;;;20.65;14.53;;;;;;;7.61;85.85;101550.02;1663762;83;21410;-60
2021/11/07 08:31:37;;;;;;;22.40;14.80;;;;;;;7.67;85.42;101536.39;1663575;85;21228;-60
2021/11/07 08:34:43;;;;;;;21.73;14.58;;;;;;;7.74;85.17;101532.13;1663052;86;21338;-60
2021/11/07 08:38:03;;;;;;;23.05;14.87;;;;;;;7.80;84.88;101524.79;1663635;85;21373;-61
2021/11/07 08:41:09;;;;;;;25.52;16.17;;;;;;;7.89;84.80;101519.06;1663055;85;21276;-60
2021/11/07 09:01:25;;;;;;;20.97;13.87;;;;;;;8.53;82.95;101479.78;1678447;85;20553;-59
2021/11/07 09:04:41;;;;;;;20.00;13.05;;;;;;;8.62;82.53;101472.12;1678447;85;21247;-61
2021/11/07 09:11:10;;;;;;;22.42;15.38;;;;;;;8.78;81.51;101446.02;1678087;85;21211;-60
2021/11/07 09:14:16;;;;;;;16.97;12.03;;;;;;;8.89;81.07;101457.37;1677700;85;21235;-60
2021/11/07 09:17:23;;;;;;;18.77;12.15;;;;;;;8.97;80.80;101458.38;1678042;85;21380;-59
2021/11/07 09:20:42;;;;;;;18.40;11.83;;;;;;;9.09;80.75;101455.03;1677797;85;21239;-59
2021/11/07 09:23:48;;;;;;;17.02;11.00;;;;;;;9.19;80.03;101444.13;1681109;83;21266;-60
2021/11/07 09:26:51;;;;;;;15.93;11.48;;;;;;;9.27;79.68;101424.67;1663447;85;21368;-60
2021/11/07 09:30:14;;;;;;;16.90;11.38;;;;;;;9.38;79.19;101424.54;1660883;83;21498;-60
2021/11/07 09:33:24;;;;;;;16.73;10.40;;;;;;;9.47;78.66;101421.42;1658313;86;21863;-59
2021/11/07 09:36:30;;;;;;;16.00;11.33;;;;;;;9.56;78.01;101420.06;1658332;86;21245;-60
2021/11/07 09:46:05;;;;;;;15.20;10.72;;;;;;;9.82;76.94;101426.68;1660289;85;22102;-61
2021/11/07 09:49:51;;;;;;;15.00;10.50;;;;;;;9.89;76.37;101422.37;1672968;85;21255;-59
2021/11/07 09:52:18;;;;;;;14.43;10.10;;;;;;;9.96;75.89;101419.39;1668308;85;21756;-60
2021/11/07 09:55:29;;;;;;;13.78;9.63;;;;;;;10.03;75.21;101410.09;1674495;85;21223;-60
2021/11/07 09:58:39;;;;;;;15.45;9.40;;;;;;;10.08;74.78;101412.79;1688328;84;21377;-60
2021/11/07 10:01:57;;;;;;;14.15;8.20;;;;;;;10.15;74.41;101408.44;1688546;85;21693;-59
2021/11/07 10:04:59;;;;;;;11.85;8.25;;;;;;;10.21;73.95;101401.00;1657604;84;21733;-60
2021/11/07 10:08:09;;;;;;;12.75;8.93;;;;;;;10.30;73.75;101389.17;1646014;87;21287;-60
2021/11/07 10:11:15;;;;;;;15.63;9.33;;;;;;;10.39;73.61;101391.00;1645635;87;21228;-60
2021/11/07 10:14:22;;;;;;;13.72;9.63;;;;;;;10.49;73.68;101383.63;1646951;87;21231;-59
2021/11/07 10:17:55;;;;;;;13.72;9.45;;;;;;;10.58;73.23;101379.97;1646257;87;21822;-60
2021/11/07 10:21:01;;;;;;;12.07;8.13;;;;;;;10.68;73.05;101370.34;1646315;87;21290;-59
2021/11/07 10:24:19;;;;;;;10.72;9.08;;;;;;;10.80;72.54;101364.98;1646340;87;21780;-60
2021/11/07 10:27:23;;;;;;;13.08;9.93;;;;;;;10.89;72.21;101365.46;1649404;85;21762;-60
2021/11/07 10:30:30;;;;;;;11.95;9.53;;;;;;;10.99;72.02;101359.39;1655732;84;21824;-60
2021/11/07 10:43:42;;;;;;;13.88;8.38;;;;;;;11.19;71.02;101329.47;1645330;86;21761;-60
2021/11/07 10:46:54;;;;;;;10.80;8.35;;;;;;;11.25;70.66;101332.08;1667407;85;21957;-58
2021/11/07 10:53:28;;;;;;;9.45;6.90;;;;;;;11.28;69.97;101304.35;1685003;83;21265;-58
2021/11/07 10:56:33;;;;;;;7.72;6.37;;;;;;;11.33;69.70;101304.25;1677017;85;21560;-59
2021/11/07 10:59:39;;;;;;;11.78;7.80;;;;;;;11.39;68.94;101291.27;1678066;85;21209;-59
2021/11/07 11:03:00;;;;;;;10.23;7.53;;;;;;;11.44;68.70;101299.88;1678652;84;21245;-60
2021/11/07 11:06:10;;;;;;;15.93;10.72;;;;;;;11.53;68.75;101298.04;1679342;85;21817;-59
2021/11/07 11:09:18;;;;;;;20.12;12.75;;;;;;;11.71;68.76;101299.78;1621281;88;21318;-59
2021/11/07 11:12:24;;;;;;;13.95;9.83;;;;;;;11.79;68.54;101294.35;1678525;84;21304;-60
2021/11/07 11:22:32;;;;;;;18.05;10.65;;;;;;;12.07;67.71;101282.66;1676763;85;21796;-60
2021/11/07 11:25:42;;;;;;;31.07;17.17;;;;;;;12.29;67.65;101283.45;1692907;84;21160;-61
2021/11/07 11:32:08;;;;;;;13.10;9.23;;;;;;;12.55;65.90;101269.66;1621990;83;21309;-60
2021/11/07 11:38:27;;;;;;;15.88;10.60;;;;;;;12.55;65.31;101265.03;1624550;88;21268;-60
2021/11/07 11:44:57;;;;;;;14.90;10.90;;;;;;;12.48;65.18;101262.59;1625434;88;21373;-60
2021/11/07 12:01:19;;;;;;;9.00;7.10;;;;;;;13.27;61.41;101252.80;1640131;85;21308;-60
2021/11/07 12:04:37;;;;;;;10.72;7.85;;;;;;;13.39;60.31;101251.94;1600627;87;21606;-59
2021/11/07 12:07:46;;;;;;;10.93;8.65;;;;;;;13.40;59.96;101245.39;1624707;87;21378;-59
2021/11/07 12:10:50;;;;;;;9.70;7.78;;;;;;;13.35;59.54;101240.41;1610693;88;21259;-60
2021/11/07 12:13:59;;;;;;;12.18;9.23;;;;;;;13.35;59.73;101248.67;1629007;87;21246;-60
2021/11/07 12:17:07;;;;;;;10.48;8.73;;;;;;;13.34;59.27;101231.83;1622993;86;21602;-59
2021/11/07 12:20:38;;;;;;;12.37;8.80;;;;;;;13.33;59.38;101238.34;1622442;86;21209;-60
2021/11/07 12:23:44;;;;;;;15.63;10.45;;;;;;;13.35;58.99;101236.30;1621857;88;21236;-60
2021/11/07 12:26:50;;;;;;;15.53;11.18;;;;;;;13.34;58.48;101234.59;1624200;87;21229;-59
2021/11/07 12:29:59;;;;;;;14.38;9.23;;;;;;;13.32;58.68;101239.39;1626031;85;21646;-60
2021/11/07 12:33:16;;;;;;;11.55;7.83;;;;;;;13.30;58.58;101236.48;1605948;84;21870;-60
2021/11/07 12:43:17;;;;;;;9.10;6.87;;;;;;;13.02;57.39;101244.70;1655187;85;21314;-60
2021/11/07 12:46:54;;;;;;;10.95;7.40;;;;;;;12.77;57.42;101249.29;1621325;88;21402;-61
2021/11/07 12:50:05;;;;;;;11.48;7.42;;;;;;;12.50;57.81;101227.59;1651552;86;21865;-60
2021/11/07 12:53:10;;;;;;;12.88;7.15;;;;;;;12.18;58.19;101223.36;1644557;86;21603;-61
2021/11/07 12:56:17;;;;;;;11.45;8.25;;;;;;;11.98;58.78;101210.43;1643438;87;21702;-60
2021/11/07 12:59:32;;;;;;;11.80;8.80;;;;;;;11.92;59.33;101234.92;1645639;87;21205;-60
2021/11/07 13:02:38;;;;;;;13.53;9.65;;;;;;;11.89;59.78;101200.95;1645688;86;21717;-64
2021/11/07 13:05:45;;;;;;;16.70;11.15;;;;;;;11.88;60.29;101204.70;1650837;86;21236;-61
2021/11/07 13:08:59;;;;;;;22.55;13.83;;;;;;;11.87;60.65;101209.35;1621829;87;21362;-60
2021/11/07 13:12:15;;;;;;;27.82;14.95;;;;;;;11.85;61.00;101203.66;1610063;88;21268;-60
2021/11/07 13:18:51;;;;;;;24.35;15.35;;;;;;;11.71;61.67;101204.28;1646939;85;21374;-60
2021/11/07 13:25:33;;;;;;;14.15;10.60;;;;;;;11.50;62.54;101192.30;1652689;86;21592;-60
2021/11/07 13:28:32;;;;;;;15.80;11.20;;;;;;;11.39;63.01;101177.99;1653724;85;21312;-60
2021/11/07 13:31:40;;;;;;;17.57;11.63;;;;;;;11.29;63.47;101185.48;1654427;86;21259;-60
2021/11/07 13:34:37;;;;;;;20.40;13.40;;;;;;;11.18;63.87;101181.64;1663636;83;21301;-60
2021/11/07 13:37:57;;;;;;;31.37;18.27;;;;;;;11.07;64.25;101169.03;1663684;84;21374;-60
2021/11/07 13:41:02;;;;;;;53.45;27.48;;;;;;;10.95;64.62;101158.00;1703272;84;21360;-59
2021/11/07 13:44:18;;;;;;;55.33;32.73;;;;;;;10.86;65.05;101155.35;1650571;85;21174;-60
2021/11/07 13:47:24;;;;;;;53.90;32.73;;;;;;;10.76;65.41;101162.78;1674266;84;21248;-60
2021/11/07 13:50:32;;;;;;;58.02;31.87;;;;;;;10.64;65.83;101157.22;1674142;85;21236;-60
2021/11/07 13:53:42;;;;;;;59.95;32.60;;;;;;;10.52;66.26;101156.09;1673294;85;21906;-59
2021/11/07 13:56:53;;;;;;;72.95;43.75;;;;;;;10.40;66.70;101164.69;1668898;84;21629;-61
2021/11/07 14:00:00;;;;;;;70.72;41.90;;;;;;;10.28;67.08;101147.62;1658120;85;21292;-61
2021/11/07 14:03:05;;;;;;;90.47;52.05;;;;;;;10.16;67.59;101147.48;1673441;85;21251;-61
2021/11/07 14:06:18;;;;;;;123.00;69.27;;;;;;;10.03;68.01;101133.30;1673476;85;21248;-60
2021/11/07 14:09:23;;;;;;;97.72;51.80;;;;;;;9.90;68.62;101130.07;1672741;85;21710;-59
2021/11/07 14:12:46;;;;;;;92.47;48.50;;;;;;;9.75;69.18;101127.48;1672543;85;21238;-59
2021/11/07 14:15:54;;;;;;;98.97;49.93;;;;;;;9.62;69.69;101132.47;1672283;85;21219;-59
2021/11/07 14:19:04;;;;;;;86.53;43.20;;;;;;;9.49;70.32;101128.34;1672548;85;21205;-59
2021/11/07 14:22:15;;;;;;;71.40;39.25;;;;;;;9.40;70.87;101129.26;1672934;85;21543;-60
2021/11/07 14:25:19;;;;;;;88.20;44.67;;;;;;;9.32;71.25;101128.65;1626569;85;21273;-59
2021/11/07 14:28:35;;;;;;;71.67;40.88;;;;;;;9.26;71.56;101137.95;1673178;84;21255;-59
2021/11/07 14:31:36;;;;;;;61.65;36.75;;;;;;;9.20;71.88;101133.92;1667844;85;21223;-58
2021/11/07 14:41:04;;;;;;;57.80;27.70;;;;;;;9.08;72.94;101125.56;1633258;87;21226;-59
2021/11/07 14:44:14;;;;;;;50.78;26.07;;;;;;;9.06;73.29;101120.74;1632974;87;21768;-59
2021/11/07 14:47:29;;;;;;;51.35;30.52;;;;;;;9.03;73.48;101125.14;1632813;87;21228;-60
2021/11/07 14:57:24;;;;;;;25.30;14.90;;;;;;;8.92;74.23;101104.34;1667283;85;21392;-60
2021/11/07 15:00:19;;;;;;;16.35;10.18;;;;;;;8.88;74.33;101096.07;1677693;84;21774;-59
2021/11/07 15:03:34;;;;;;;18.48;9.93;;;;;;;8.88;74.32;101087.01;1664942;85;21221;-60
2021/11/07 15:06:45;;;;;;;16.62;10.28;;;;;;;8.90;74.20;101092.70;1675049;85;21279;-59
2021/11/07 15:13:29;;;;;;;18.73;12.55;;;;;;;8.95;74.02;101101.80;1656494;85;21806;-59
2021/11/07 15:16:51;;;;;;;27.90;18.62;;;;;;;8.96;73.91;101105.75;1679129;85;21386;-59
2021/11/07 15:20:04;;;;;;;75.85;38.98;;;;;;;8.97;73.78;101113.45;1678676;85;21240;-59
2021/11/07 15:23:08;;;;;;;53.35;29.55;;;;;;;8.97;73.66;101099.80;1678321;84;21255;-59
2021/11/07 15:26:31;;;;;;;41.77;24.80;;;;;;;8.96;73.60;101088.00;1678419;85;21232;-59
2021/11/07 15:29:45;;;;;;;44.42;24.02;;;;;;;8.96;73.53;101075.71;1679720;85;21729;-60
2021/11/07 15:32:49;;;;;;;36.68;23.12;;;;;;;8.97;73.48;101061.04;1678363;84;21283;-59
2021/11/07 15:36:03;;;;;;;41.75;25.88;;;;;;;8.96;73.43;101073.48;1670483;83;21248;-60
2021/11/07 15:39:19;;;;;;;42.45;22.90;;;;;;;8.95;73.44;101054.02;1657269;85;21225;-58
2021/11/07 15:42:26;;;;;;;23.87;12.65;;;;;;;8.95;73.37;101037.64;1654416;85;21347;-58
2021/11/07 15:45:41;;;;;;;16.05;10.60;;;;;;;8.93;73.40;101047.84;1629411;86;21776;-60
2021/11/07 15:48:56;;;;;;;15.05;10.10;;;;;;;8.93;73.38;101044.61;1629575;86;21245;-59
2021/11/07 15:52:00;;;;;;;12.88;9.50;;;;;;;8.93;73.40;101035.05;1630837;86;21722;-59
2021/11/07 15:55:07;;;;;;;23.05;11.55;;;;;;;8.94;73.46;101040.02;1609677;87;21249;-60
2021/11/07 16:07:50;;;;;;;36.08;20.05;;;;;;;8.96;73.71;101055.73;1626456;87;22015;-59
2021/11/07 16:17:25;;;;;;;32.30;19.02;;;;;;;8.97;73.78;101071.13;1632665;86;21383;-58
2021/11/07 16:20:27;;;;;;;32.03;18.12;;;;;;;8.98;73.79;101068.73;1633610;87;21498;-60
2021/11/07 16:23:33;;;;;;;23.35;15.48;;;;;;;8.99;73.84;101060.92;1614758;87;21281;-59
2021/11/07 16:26:40;;;;;;;27.40;16.62;;;;;;;8.99;73.86;101070.48;1631360;86;21729;-61
2021/11/07 16:29:45;;;;;;;22.62;16.75;;;;;;;8.99;73.87;101079.52;1623830;88;21768;-60
2021/11/07 16:33:09;;;;;;;23.98;15.58;;;;;;;8.97;73.89;101078.79;1624463;87;21271;-59
2021/11/07 16:36:14;;;;;;;26.15;15.05;;;;;;;8.95;73.97;101073.13;1624829;88;21236;-59
2021/11/07 16:39:31;;;;;;;21.87;13.38;;;;;;;8.95;74.09;101062.21;1623225;88;21348;-59
2021/11/07 16:42:41;;;;;;;23.95;14.45;;;;;;;8.92;74.11;101063.38;1603347;88;21411;-59
2021/11/07 16:45:47;;;;;;;20.12;12.90;;;;;;;8.92;74.18;101066.61;1622883;88;21475;-60
2021/11/07 16:48:57;;;;;;;19.90;13.05;;;;;;;8.92;74.24;101051.59;1623021;87;21267;-60
2021/11/07 16:52:20;;;;;;;21.65;13.30;;;;;;;8.93;74.27;101044.61;1608753;87;21868;-60
2021/11/07 16:55:33;;;;;;;25.10;13.88;;;;;;;8.92;74.44;101035.20;1623809;88;21224;-59
2021/11/07 17:08:29;;;;;;;43.52;22.67;;;;;;;8.91;74.77;101069.83;1623236;87;21264;-58
2021/11/07 17:11:33;;;;;;;45.55;22.95;;;;;;;8.91;74.78;101066.27;1636811;86;21742;-59
2021/11/07 17:14:43;;;;;;;52.48;27.05;;;;;;;8.92;74.80;101065.24;1639715;87;21366;-59
2021/11/07 17:18:01;;;;;;;59.55;27.50;;;;;;;8.90;74.81;101049.01;1639720;87;21248;-59